Colony, Missouri
Current Conditions -  °F | °C
As of 1:55 PM on Friday 31 Oct 2014 (Local Time) from KIRK Reporting Station
Clear Clear  
Wind Chill: 35°   Ceiling: Unl
Heat Index: 43°   Visibility: 10mi
Dew Point: 20°   Wind: 16mph
Humidity: 40%   Direction: 350°N
Pressure: 30.42"   Gusts: 22mph
Location:  40.3469°N, 92.1083°W
Report Text: KIRK 311855Z AUTO 35014G19KT 10SM CLR 06/M07 A3042 RMK AO2 SLP307 T00611067
Loading
Personal Weather Stations






























Interactive Weather Map
Tropical Storm Tracking
New forecast layout! Learn more

10-Day Weather Forecast

Advertisements
Track Severe Weather on mobile